createdAt,value
2024-03-12T00:02:08.786Z,100034.60
2024-03-12T00:04:35.571Z,100041.84
2024-03-12T00:07:02.773Z,100042.97
2024-03-12T00:09:29.894Z,100045.79
2024-03-12T00:11:56.795Z,100046.35
2024-03-12T00:14:24.770Z,100045.16
2024-03-12T00:16:51.749Z,100050.40
2024-03-12T00:19:18.540Z,100050.52
2024-03-12T00:21:45.350Z,100051.55
2024-03-12T00:24:12.207Z,100051.84
2024-03-12T00:26:39.326Z,100051.14
2024-03-12T00:29:06.084Z,100054.69
2024-03-12T00:31:32.943Z,100058.11
2024-03-12T00:34:02.030Z,100060.48
2024-03-12T00:36:30.357Z,100062.66
2024-03-12T00:38:58.863Z,100065.92
2024-03-12T00:41:25.717Z,100063.02
2024-03-12T00:43:53.544Z,100065.34
2024-03-12T00:46:20.520Z,100065.06
2024-03-12T00:48:48.470Z,100065.23
2024-03-12T00:51:16.910Z,100065.55
2024-03-12T00:53:43.988Z,100066.89
2024-03-12T00:56:10.792Z,100068.17
2024-03-12T00:58:40.572Z,100067.02
2024-03-12T01:01:08.372Z,100065.55
2024-03-12T01:03:35.634Z,100060.88
2024-03-12T01:06:02.925Z,100059.79
2024-03-12T01:08:30.301Z,100061.40
2024-03-12T01:10:57.353Z,100062.16
2024-03-12T01:13:25.868Z,100063.58
2024-03-12T01:15:55.601Z,100061.30
2024-03-12T01:18:22.642Z,100058.42
2024-03-12T01:20:50.835Z,100058.50
2024-03-12T01:23:17.772Z,100059.42
2024-03-12T01:25:44.707Z,100055.48
2024-03-12T01:28:12.196Z,100052.79
2024-03-12T01:30:39.415Z,100052.55
2024-03-12T01:33:07.669Z,100046.05
2024-03-12T01:35:40.818Z,100039.58
2024-03-12T01:38:11.402Z,100042.34
2024-03-12T01:40:39.327Z,100039.09
2024-03-12T01:43:08.581Z,100042.67
2024-03-12T01:45:37.441Z,100039.17
2024-03-12T01:48:09.036Z,100038.39
2024-03-12T01:50:37.915Z,100033.25
2024-03-12T01:53:09.564Z,100035.89
2024-03-12T01:55:45.624Z,100034.15
2024-03-12T01:58:17.701Z,100033.52
2024-03-12T02:00:46.383Z,100034.77
2024-03-12T02:03:13.961Z,100035.21
2024-03-12T02:05:43.062Z,100034.40
2024-03-12T02:08:11.206Z,100035.30
2024-03-12T02:10:38.239Z,100035.27
2024-03-12T02:13:05.637Z,100040.58
2024-03-12T02:15:34.394Z,100041.67
2024-03-12T02:18:01.512Z,100041.05
2024-03-12T02:20:28.815Z,100046.73
2024-03-12T02:22:56.964Z,100051.15
2024-03-12T02:25:24.710Z,100053.41
2024-03-12T02:27:53.264Z,100056.36
2024-03-12T02:30:20.956Z,100053.41
2024-03-12T02:32:49.250Z,100051.41
2024-03-12T02:35:17.319Z,100048.27
2024-03-12T02:37:44.861Z,100051.61
2024-03-12T02:40:16.617Z,100051.90
2024-03-12T02:42:44.620Z,100055.30
2024-03-12T02:45:17.140Z,100053.69
2024-03-12T02:47:46.787Z,100051.13
2024-03-12T02:50:15.083Z,100051.59
2024-03-12T02:52:43.583Z,100050.46
2024-03-12T02:55:10.849Z,100045.36
2024-03-12T02:57:38.482Z,100043.66
2024-03-12T03:00:16.236Z,100042.27
2024-03-12T03:02:43.881Z,100040.60
2024-03-12T03:05:12.174Z,100047.52
2024-03-12T03:07:44.279Z,100043.98
2024-03-12T03:10:13.219Z,100045.63
2024-03-12T03:12:41.264Z,100045.02
2024-03-12T03:15:13.549Z,100052.30
2024-03-12T03:17:45.177Z,100050.79
2024-03-12T03:20:13.642Z,100059.36
2024-03-12T03:22:41.145Z,100060.20
2024-03-12T03:25:09.694Z,100066.15
2024-03-12T03:27:36.552Z,100067.82
2024-03-12T03:30:04.840Z,100068.37
2024-03-12T03:32:31.727Z,100070.27
2024-03-12T03:34:58.714Z,100070.39
2024-03-12T03:37:31.966Z,100072.64
2024-03-12T03:39:58.885Z,100073.36
2024-03-12T03:42:26.140Z,100070.26
2024-03-12T03:44:52.979Z,100074.33
2024-03-12T03:47:19.696Z,100074.20
2024-03-12T03:49:49.052Z,100072.59
2024-03-12T03:52:16.048Z,100079.81
2024-03-12T03:54:43.015Z,100082.37
2024-03-12T03:57:11.225Z,100079.98
2024-03-12T03:59:38.105Z,100076.79
2024-03-12T04:02:06.608Z,100075.38
2024-03-12T04:04:33.538Z,100082.77
2024-03-12T04:07:00.409Z,100091.47
2024-03-12T04:09:27.464Z,100091.38
2024-03-12T04:11:54.911Z,100097.14
2024-03-12T04:14:21.748Z,100101.46
2024-03-12T04:16:48.558Z,100101.52
2024-03-12T04:19:16.248Z,100101.77
2024-03-12T04:21:45.420Z,100101.95
2024-03-12T04:24:15.190Z,100106.69
2024-03-12T04:26:46.925Z,100105.54
2024-03-12T04:29:13.808Z,100108.21
2024-03-12T04:31:41.083Z,100113.49
2024-03-12T04:34:10.132Z,100119.15
2024-03-12T04:36:37.460Z,100119.83
2024-03-12T04:39:24.000Z,100120.36
2024-03-12T04:41:50.868Z,100123.95
2024-03-12T04:44:18.543Z,100124.83
2024-03-12T04:46:45.620Z,100125.45
2024-03-12T04:49:12.497Z,100124.99
2024-03-12T04:51:41.955Z,100124.94
2024-03-12T04:54:08.776Z,100126.02
2024-03-12T04:56:35.728Z,100131.44
2024-03-12T04:59:02.585Z,100137.30
2024-03-12T05:01:29.497Z,100140.01
2024-03-12T05:03:59.677Z,100139.77
2024-03-12T05:06:29.022Z,100144.05
2024-03-12T05:08:57.325Z,100146.68
2024-03-12T05:11:24.293Z,100148.73
2024-03-12T05:13:51.034Z,100152.06
2024-03-12T05:16:17.879Z,100157.89
2024-03-12T05:18:44.791Z,100153.71
2024-03-12T05:21:12.042Z,100154.65
2024-03-12T05:23:39.212Z,100152.79
2024-03-12T05:26:05.972Z,100155.41
2024-03-12T05:28:33.669Z,100164.27
2024-03-12T05:31:00.685Z,100160.83
2024-03-12T05:33:31.308Z,100159.46
2024-03-12T05:35:58.346Z,100163.84
2024-03-12T05:38:35.421Z,100164.75
2024-03-12T05:41:11.846Z,100165.02
2024-03-12T05:43:57.810Z,100161.70
2024-03-12T05:46:47.055Z,100161.14
2024-03-12T05:49:17.354Z,100162.86
2024-03-12T05:51:48.029Z,100169.98
2024-03-12T05:54:15.099Z,100177.48
2024-03-12T05:56:41.836Z,100179.13
2024-03-12T05:59:08.945Z,100186.56
2024-03-12T06:01:36.165Z,100189.34
2024-03-12T06:04:04.384Z,100191.63
2024-03-12T06:06:34.272Z,100199.47
2024-03-12T06:09:02.101Z,100201.40
2024-03-12T06:11:29.005Z,100205.84
2024-03-12T06:13:55.939Z,100205.76
2024-03-12T06:16:22.979Z,100205.66
2024-03-12T06:18:49.872Z,100209.11
2024-03-12T06:21:17.676Z,100215.80
2024-03-12T06:23:45.978Z,100221.89
2024-03-12T06:26:13.059Z,100225.77
2024-03-12T06:28:40.268Z,100228.23
2024-03-12T06:31:07.352Z,100235.12
2024-03-12T06:33:34.848Z,100236.65
2024-03-12T06:36:02.179Z,100243.48
2024-03-12T06:38:29.019Z,100250.98
2024-03-12T06:40:55.697Z,100251.05
2024-03-12T06:43:22.717Z,100251.09
2024-03-12T06:45:50.609Z,100257.57
2024-03-12T06:48:19.746Z,100261.02
2024-03-12T06:50:47.059Z,100258.42
2024-03-12T06:53:15.907Z,100263.58
2024-03-12T06:55:42.765Z,100270.86
2024-03-12T06:58:13.018Z,100276.27
2024-03-12T07:00:46.260Z,100278.13
2024-03-12T07:03:15.725Z,100279.47
2024-03-12T07:05:48.440Z,100276.60
2024-03-12T07:08:18.901Z,100278.23
2024-03-12T07:10:46.864Z,100282.38
2024-03-12T07:13:14.438Z,100289.64
2024-03-12T07:15:43.746Z,100284.48
2024-03-12T07:18:11.002Z,100286.55
2024-03-12T07:20:38.072Z,100288.99
2024-03-12T07:23:06.946Z,100287.79
2024-03-12T07:25:34.366Z,100292.21
2024-03-12T07:28:14.008Z,100295.45
2024-03-12T07:30:41.561Z,100300.15
2024-03-12T07:33:08.564Z,100301.52
2024-03-12T07:35:36.067Z,100305.83
2024-03-12T07:38:04.640Z,100299.36
2024-03-12T07:40:33.366Z,100300.88
2024-03-12T07:43:00.628Z,100304.04
2024-03-12T07:45:28.763Z,100299.85
2024-03-12T07:47:56.987Z,100300.42
2024-03-12T07:50:24.125Z,100299.77
2024-03-12T07:52:52.439Z,100301.85
2024-03-12T07:55:19.309Z,100303.80
2024-03-12T07:57:46.380Z,100307.45
2024-03-12T08:00:17.958Z,100308.93
2024-03-12T08:02:45.034Z,100304.16
2024-03-12T08:05:14.177Z,100303.74
2024-03-12T08:07:41.396Z,100299.17
2024-03-12T08:10:11.070Z,100300.20
2024-03-12T08:12:41.217Z,100303.20
2024-03-12T08:15:10.281Z,100305.84
2024-03-12T08:17:39.200Z,100307.86
2024-03-12T08:20:07.478Z,100312.68
2024-03-12T08:22:34.647Z,100314.00
2024-03-12T08:25:02.334Z,100316.03
2024-03-12T08:27:29.375Z,100319.27
2024-03-12T08:29:58.708Z,100317.01
2024-03-12T08:32:26.561Z,100321.52
2024-03-12T08:34:53.517Z,100324.36
2024-03-12T08:37:20.354Z,100320.77
2024-03-12T08:39:48.082Z,100320.92
2024-03-12T08:42:14.952Z,100323.65
2024-03-12T08:44:41.902Z,100326.86
2024-03-12T08:47:09.989Z,100328.29
2024-03-12T08:49:36.770Z,100328.80
2024-03-12T08:52:04.691Z,100323.91
2024-03-12T08:54:32.765Z,100323.17
2024-03-12T08:56:59.578Z,100321.91
2024-03-12T08:59:26.329Z,100321.17
2024-03-12T09:01:58.442Z,100321.41
2024-03-12T09:04:25.559Z,100325.73
2024-03-12T09:06:52.443Z,100329.06
2024-03-12T09:09:19.733Z,100331.17
2024-03-12T09:11:47.892Z,100331.86
2024-03-12T09:14:14.728Z,100338.64
2024-03-12T09:16:42.021Z,100337.03
2024-03-12T09:19:10.261Z,100337.23
2024-03-12T09:21:37.244Z,100339.85
2024-03-12T09:24:06.445Z,100336.89
2024-03-12T09:26:34.824Z,100337.48
2024-03-12T09:29:01.990Z,100334.48
2024-03-12T09:31:28.873Z,100335.05
2024-03-12T09:33:56.727Z,100336.08
2024-03-12T09:36:25.780Z,100333.98
2024-03-12T09:38:52.878Z,100335.35
2024-03-12T09:41:26.937Z,100339.67
2024-03-12T09:43:55.321Z,100341.20
2024-03-12T09:46:22.998Z,100340.86
2024-03-12T09:48:52.884Z,100343.45
2024-03-12T09:51:22.431Z,100340.91
2024-03-12T09:53:50.502Z,100341.52
2024-03-12T09:56:19.177Z,100343.41
2024-03-12T09:58:46.298Z,100344.52
2024-03-12T10:01:14.213Z,100343.58
2024-03-12T10:03:42.472Z,100344.45
2024-03-12T10:06:10.814Z,100345.23
2024-03-12T10:08:37.905Z,100349.30
2024-03-12T10:11:10.138Z,100344.47
2024-03-12T10:13:40.217Z,100351.45
2024-03-12T10:16:08.616Z,100358.83
2024-03-12T10:18:36.274Z,100359.16
2024-03-12T10:21:03.925Z,100361.52
2024-03-12T10:23:35.101Z,100360.79
2024-03-12T10:26:17.177Z,100360.86
2024-03-12T10:28:46.864Z,100362.89
2024-03-12T10:31:16.228Z,100363.63
2024-03-12T10:33:51.900Z,100364.17
2024-03-12T10:36:34.062Z,100368.46
2024-03-12T10:39:01.295Z,100365.46
2024-03-12T10:41:28.278Z,100364.24
2024-03-12T10:44:12.354Z,100361.19
2024-03-12T10:46:46.319Z,100362.45
2024-03-12T10:49:14.630Z,100362.17
2024-03-12T10:51:44.250Z,100356.75
2024-03-12T10:54:18.155Z,100359.11
2024-03-12T10:56:47.706Z,100361.15
2024-03-12T10:59:17.582Z,100360.21
2024-03-12T11:01:44.700Z,100359.20
2024-03-12T11:04:14.166Z,100359.62
2024-03-12T11:06:41.191Z,100356.81
2024-03-12T11:09:09.310Z,100359.52
2024-03-12T11:11:36.393Z,100353.91
2024-03-12T11:14:07.680Z,100356.04
2024-03-12T11:16:36.795Z,100353.67
2024-03-12T11:19:27.557Z,100358.38
2024-03-12T11:22:02.448Z,100357.69
2024-03-12T11:24:31.528Z,100356.50
2024-03-12T11:27:01.543Z,100354.72
2024-03-12T11:30:05.794Z,100356.30
2024-03-12T11:32:39.775Z,100359.56
2024-03-12T11:35:11.188Z,100357.17
2024-03-12T11:37:39.307Z,100355.90
2024-03-12T11:40:32.398Z,100352.80
2024-03-12T11:42:59.846Z,100350.56
2024-03-12T11:45:42.745Z,100349.08
2024-03-12T11:48:11.198Z,100349.16
2024-03-12T11:50:43.913Z,100345.31
2024-03-12T11:53:22.865Z,100348.47
2024-03-12T11:56:00.452Z,100343.93
2024-03-12T11:58:32.871Z,100343.59
2024-03-12T12:01:01.567Z,100342.41
2024-03-12T12:03:29.110Z,100338.77
2024-03-12T12:05:56.246Z,100338.21
2024-03-12T12:08:23.759Z,100338.03
2024-03-12T12:10:58.957Z,100335.49
2024-03-12T12:13:26.410Z,100337.94
2024-03-12T12:16:06.444Z,100337.15
2024-03-12T12:18:34.982Z,100332.06
2024-03-12T12:21:04.443Z,100330.67
2024-03-12T12:23:31.403Z,100324.81
2024-03-12T12:25:58.638Z,100322.35
2024-03-12T12:28:27.175Z,100317.42
2024-03-12T12:31:02.139Z,100314.77
2024-03-12T12:33:31.813Z,100312.73
2024-03-12T12:36:09.557Z,100309.51
2024-03-12T12:38:37.835Z,100310.70
2024-03-12T12:41:09.728Z,100310.50
2024-03-12T12:43:36.697Z,100307.82
2024-03-12T12:46:06.674Z,100307.48
2024-03-12T12:48:36.352Z,100308.58
2024-03-12T12:51:06.447Z,100305.70
2024-03-12T12:53:33.261Z,100304.77
2024-03-12T12:56:04.692Z,100299.14
2024-03-12T12:58:35.112Z,100305.65
2024-03-12T13:01:03.385Z,100307.23
2024-03-12T13:03:45.098Z,100304.35
2024-03-12T13:06:17.799Z,100300.55
2024-03-12T13:08:46.982Z,100300.67
2024-03-12T13:11:19.681Z,100296.48
2024-03-12T13:13:52.328Z,100292.91
2024-03-12T13:16:25.750Z,100293.28
2024-03-12T13:18:59.666Z,100294.95
2024-03-12T13:21:26.873Z,100292.87
2024-03-12T13:23:54.488Z,100294.48
2024-03-12T13:26:24.369Z,100294.64
2024-03-12T13:28:55.508Z,100296.10
2024-03-12T13:31:23.547Z,100295.08
2024-03-12T13:33:52.368Z,100292.77
2024-03-12T13:36:20.616Z,100292.35
2024-03-12T13:38:51.028Z,100294.79
2024-03-12T13:41:22.212Z,100295.23
2024-03-12T13:43:50.065Z,100298.18
2024-03-12T13:46:19.013Z,100301.36
2024-03-12T13:48:45.927Z,100300.13
2024-03-12T13:51:12.776Z,100299.64
2024-03-12T13:53:44.405Z,100299.90
2024-03-12T13:56:11.414Z,100299.79
2024-03-12T13:58:42.612Z,100299.64
2024-03-12T14:01:14.235Z,100300.69
2024-03-12T14:03:41.831Z,100303.83
2024-03-12T14:06:10.621Z,100303.52
2024-03-12T14:08:37.892Z,100301.67
2024-03-12T14:11:05.048Z,100299.06
2024-03-12T14:13:33.220Z,100302.65
2024-03-12T14:16:00.474Z,100303.39
2024-03-12T14:18:28.417Z,100307.09
2024-03-12T14:20:56.325Z,100311.67
2024-03-12T14:23:24.052Z,100316.66
2024-03-12T14:25:51.016Z,100314.77
2024-03-12T14:28:17.883Z,100316.58
2024-03-12T14:30:46.202Z,100317.67
2024-03-12T14:33:13.699Z,100319.27
2024-03-12T14:35:40.752Z,100318.94
2024-03-12T14:38:07.598Z,100318.33
2024-03-12T14:40:34.445Z,100320.23
2024-03-12T14:43:02.013Z,100323.46
2024-03-12T14:45:30.692Z,100320.84
2024-03-12T14:47:57.851Z,100319.80
2024-03-12T14:50:24.877Z,100314.90
2024-03-12T14:52:52.147Z,100315.27
2024-03-12T14:55:21.857Z,100316.77
2024-03-12T14:57:49.046Z,100317.13
2024-03-12T15:00:17.929Z,100316.98
2024-03-12T15:02:46.999Z,100318.36
2024-03-12T15:05:14.071Z,100319.06
2024-03-12T15:07:43.656Z,100315.05
2024-03-12T15:10:11.496Z,100315.75
2024-03-12T15:12:42.334Z,100314.73
2024-03-12T15:15:13.827Z,100315.34
2024-03-12T15:17:42.786Z,100317.79
2024-03-12T15:20:17.010Z,100315.45
2024-03-12T15:22:46.798Z,100314.92
2024-03-12T15:25:14.311Z,100312.81
2024-03-12T15:27:45.020Z,100314.07
2024-03-12T15:30:13.252Z,100312.55
2024-03-12T15:32:40.606Z,100316.66
2024-03-12T15:35:09.945Z,100318.59
2024-03-12T15:37:36.969Z,100322.31
2024-03-12T15:40:09.193Z,100319.33
2024-03-12T15:42:37.662Z,100322.39
2024-03-12T15:45:06.495Z,100324.13
2024-03-12T15:47:35.421Z,100324.73
2024-03-12T15:50:02.624Z,100326.84
2024-03-12T15:52:29.474Z,100328.14
2024-03-12T15:54:56.500Z,100332.19
2024-03-12T15:57:24.350Z,100332.92
2024-03-12T15:59:51.220Z,100332.75
2024-03-12T16:02:19.378Z,100340.17
2024-03-12T16:04:46.422Z,100339.88
2024-03-12T16:07:13.455Z,100343.16
2024-03-12T16:09:40.613Z,100341.42
2024-03-12T16:12:07.717Z,100341.66
2024-03-12T16:14:34.460Z,100343.20
2024-03-12T16:17:04.670Z,100346.30
2024-03-12T16:19:32.441Z,100348.44
2024-03-12T16:22:01.336Z,100348.25
2024-03-12T16:24:31.960Z,100350.84
2024-03-12T16:26:59.422Z,100356.86
2024-03-12T16:29:28.162Z,100359.20
2024-03-12T16:31:55.956Z,100361.20
2024-03-12T16:34:26.941Z,100363.88
2024-03-12T16:36:57.720Z,100367.22
2024-03-12T16:39:24.753Z,100370.31
2024-03-12T16:41:57.952Z,100372.92
2024-03-12T16:44:27.718Z,100376.03
2024-03-12T16:46:57.221Z,100379.89
2024-03-12T16:49:24.234Z,100384.45
2024-03-12T16:51:51.546Z,100384.02
2024-03-12T16:54:19.070Z,100386.51
2024-03-12T16:56:46.466Z,100389.30
2024-03-12T16:59:15.189Z,100390.96
2024-03-12T17:01:43.132Z,100389.34
2024-03-12T17:04:11.999Z,100388.73
2024-03-12T17:06:44.887Z,100395.00
2024-03-12T17:09:11.950Z,100398.91
2024-03-12T17:11:39.363Z,100405.53
2024-03-12T17:14:12.076Z,100411.85
2024-03-12T17:16:44.679Z,100415.73
2024-03-12T17:19:13.948Z,100421.66
2024-03-12T17:21:42.373Z,100423.88
2024-03-12T17:24:09.643Z,100424.46
2024-03-12T17:26:38.264Z,100430.54
2024-03-12T17:29:06.112Z,100436.91
2024-03-12T17:31:33.111Z,100440.30
2024-03-12T17:34:00.277Z,100447.08
2024-03-12T17:36:30.233Z,100449.77
2024-03-12T17:39:00.907Z,100451.14
2024-03-12T17:41:27.945Z,100455.52
2024-03-12T17:43:54.923Z,100458.16
2024-03-12T17:46:23.323Z,100464.38
2024-03-12T17:48:51.135Z,100467.94
2024-03-12T17:51:19.117Z,100469.46
2024-03-12T17:53:46.565Z,100472.08
2024-03-12T17:56:14.548Z,100473.76
2024-03-12T17:58:46.605Z,100473.39
2024-03-12T18:01:13.662Z,100475.27
2024-03-12T18:03:41.380Z,100476.23
2024-03-12T18:06:12.235Z,100481.55
2024-03-12T18:08:43.951Z,100477.92
2024-03-12T18:11:12.843Z,100480.35
2024-03-12T18:13:40.120Z,100484.98
2024-03-12T18:16:07.324Z,100482.77
2024-03-12T18:18:34.218Z,100487.75
2024-03-12T18:21:03.510Z,100490.10
2024-03-12T18:23:30.656Z,100493.35
2024-03-12T18:25:58.045Z,100495.48
2024-03-12T18:28:24.971Z,100493.95
2024-03-12T18:30:51.976Z,100494.13
2024-03-12T18:33:18.808Z,100496.13
2024-03-12T18:35:47.558Z,100496.84
2024-03-12T18:38:14.563Z,100498.48
2024-03-12T18:40:41.670Z,100501.11
2024-03-12T18:43:08.758Z,100498.37
2024-03-12T18:45:36.440Z,100502.39
2024-03-12T18:48:03.660Z,100500.39
2024-03-12T18:50:32.098Z,100505.48
2024-03-12T18:52:59.154Z,100510.78
2024-03-12T18:55:28.284Z,100513.22
2024-03-12T18:57:55.748Z,100515.69
2024-03-12T19:00:25.137Z,100520.20
2024-03-12T19:02:53.964Z,100520.02
2024-03-12T19:05:23.292Z,100521.41
2024-03-12T19:07:52.396Z,100520.48
2024-03-12T19:10:20.596Z,100522.58
2024-03-12T19:12:48.038Z,100521.81
2024-03-12T19:15:22.072Z,100524.44
2024-03-12T19:17:53.099Z,100528.31
2024-03-12T19:20:23.734Z,100529.38
2024-03-12T19:22:54.735Z,100534.28
2024-03-12T19:25:23.673Z,100533.63
2024-03-12T19:27:52.468Z,100533.91
2024-03-12T19:30:20.434Z,100537.52
2024-03-12T19:32:51.926Z,100539.45
2024-03-12T19:35:19.638Z,100539.48
2024-03-12T19:37:47.640Z,100542.92
2024-03-12T19:40:18.180Z,100543.35
2024-03-12T19:42:46.789Z,100540.01
2024-03-12T19:45:21.402Z,100542.89
2024-03-12T19:47:49.978Z,100545.39
2024-03-12T19:50:26.517Z,100547.03
2024-03-12T19:52:54.716Z,100547.77
2024-03-12T19:55:26.132Z,100551.88
2024-03-12T19:57:57.560Z,100557.37
2024-03-12T20:00:31.029Z,100561.58
2024-03-12T20:02:58.824Z,100566.05
2024-03-12T20:05:26.207Z,100569.06
2024-03-12T20:07:53.619Z,100577.23
2024-03-12T20:10:20.839Z,100578.16
2024-03-12T20:12:56.147Z,100580.39
2024-03-12T20:15:24.729Z,100580.13
2024-03-12T20:17:54.585Z,100580.39
2024-03-12T20:20:24.231Z,100579.64
2024-03-12T20:22:52.326Z,100581.58
2024-03-12T20:25:21.089Z,100584.64
2024-03-12T20:27:55.157Z,100588.72
2024-03-12T20:30:28.292Z,100589.86
2024-03-12T20:33:00.492Z,100591.65
2024-03-12T20:35:29.072Z,100592.38
2024-03-12T20:37:56.949Z,100588.08
2024-03-12T20:40:26.466Z,100588.15
2024-03-12T20:42:54.068Z,100590.73
2024-03-12T20:45:23.721Z,100590.67
2024-03-12T20:47:51.093Z,100588.34
2024-03-12T20:50:20.404Z,100589.52
2024-03-12T20:52:48.375Z,100592.16
2024-03-12T20:55:16.123Z,100593.30
2024-03-12T20:57:51.271Z,100589.65
2024-03-12T21:00:19.802Z,100588.65
2024-03-12T21:02:53.416Z,100590.30
2024-03-12T21:05:20.617Z,100585.64
2024-03-12T21:07:47.406Z,100586.61
2024-03-12T21:10:14.508Z,100590.59
2024-03-12T21:12:43.886Z,100591.58
2024-03-12T21:15:11.174Z,100592.75
2024-03-12T21:17:39.028Z,100595.34
2024-03-12T21:20:13.714Z,100596.83
2024-03-12T21:22:40.700Z,100595.58
2024-03-12T21:25:08.359Z,100597.41
2024-03-12T21:27:35.517Z,100596.88
2024-03-12T21:30:07.246Z,100596.75
2024-03-12T21:32:34.342Z,100598.71
2024-03-12T21:35:01.478Z,100597.24
2024-03-12T21:37:28.176Z,100602.52
2024-03-12T21:39:55.129Z,100605.39
2024-03-12T21:42:23.169Z,100605.30
2024-03-12T21:44:50.116Z,100606.17
2024-03-12T21:47:17.010Z,100606.94
2024-03-12T21:49:44.402Z,100607.88
2024-03-12T21:52:11.216Z,100611.49
2024-03-12T21:54:37.917Z,100614.21
2024-03-12T21:57:05.053Z,100615.56
2024-03-12T21:59:31.759Z,100615.86
2024-03-12T22:02:00.678Z,100617.95
2024-03-12T22:04:29.145Z,100624.40
2024-03-12T22:06:55.949Z,100633.72
2024-03-12T22:09:25.971Z,100641.52
2024-03-12T22:11:52.821Z,100644.63
2024-03-12T22:14:19.596Z,100642.17
2024-03-12T22:16:46.763Z,100643.64
2024-03-12T22:19:16.636Z,100649.96
2024-03-12T22:21:50.729Z,100654.56
2024-03-12T22:24:23.520Z,100655.96
2024-03-12T22:26:54.873Z,100654.24
2024-03-12T22:29:21.700Z,100653.73
2024-03-12T22:31:49.864Z,100659.99
2024-03-12T22:34:17.023Z,100660.19
2024-03-12T22:36:45.532Z,100660.85
2024-03-12T22:39:14.406Z,100661.31
2024-03-12T22:41:48.832Z,100662.74
2024-03-12T22:44:16.643Z,100663.16
2024-03-12T22:46:45.630Z,100660.60
2024-03-12T22:49:12.981Z,100657.08
2024-03-12T22:51:41.730Z,100652.25
2024-03-12T22:54:11.867Z,100655.77
2024-03-12T22:56:39.162Z,100659.38
2024-03-12T22:59:07.726Z,100658.92
2024-03-12T23:01:41.161Z,100662.68
2024-03-12T23:04:09.626Z,100666.84
2024-03-12T23:06:36.755Z,100670.29
2024-03-12T23:09:05.525Z,100674.44
2024-03-12T23:11:32.370Z,100676.74
2024-03-12T23:13:59.126Z,100680.00
2024-03-12T23:16:26.123Z,100679.30
2024-03-12T23:18:54.584Z,100685.97
2024-03-12T23:21:21.945Z,100683.27
2024-03-12T23:23:48.696Z,100689.81
2024-03-12T23:26:18.171Z,100689.98
2024-03-12T23:28:45.465Z,100690.61
2024-03-12T23:31:12.225Z,100691.20
2024-03-12T23:33:40.482Z,100693.47
2024-03-12T23:36:08.671Z,100701.09
2024-03-12T23:38:36.539Z,100704.80
2024-03-12T23:41:03.693Z,100710.23
2024-03-12T23:43:31.835Z,100706.70
2024-03-12T23:45:59.051Z,100703.73
2024-03-12T23:48:26.072Z,100701.04
2024-03-12T23:50:54.988Z,100704.16
2024-03-12T23:53:21.946Z,100698.95
2024-03-12T23:55:49.101Z,100698.02
2024-03-12T23:58:16.797Z,100695.21
